sensor_id;sensor_type;location;lat;lon;timestamp;P1;durP1;ratioP1;P2;durP2;ratioP2
55455;SDS011;63021;52.836;6.376;2023-11-19T00:00:33;43.63;;;22.13;;
55455;SDS011;63021;52.836;6.376;2023-11-19T00:03:07;51.13;;;23.13;;
55455;SDS011;63021;52.836;6.376;2023-11-19T00:05:36;43.67;;;20.98;;
55455;SDS011;63021;52.836;6.376;2023-11-19T00:08:04;52.50;;;20.88;;
55455;SDS011;63021;52.836;6.376;2023-11-19T00:10:38;52.30;;;23.52;;
55455;SDS011;63021;52.836;6.376;2023-11-19T00:13:06;46.80;;;20.55;;
55455;SDS011;63021;52.836;6.376;2023-11-19T00:15:37;61.78;;;21.58;;
55455;SDS011;63021;52.836;6.376;2023-11-19T00:18:12;49.92;;;21.42;;
55455;SDS011;63021;52.836;6.376;2023-11-19T00:20:46;52.97;;;19.23;;
55455;SDS011;63021;52.836;6.376;2023-11-19T00:23:12;54.47;;;17.02;;
55455;SDS011;63021;52.836;6.376;2023-11-19T00:25:43;56.03;;;18.05;;
55455;SDS011;63021;52.836;6.376;2023-11-19T00:28:11;52.20;;;15.93;;
55455;SDS011;63021;52.836;6.376;2023-11-19T00:30:42;48.20;;;16.17;;
55455;SDS011;63021;52.836;6.376;2023-11-19T00:33:24;53.88;;;14.32;;
55455;SDS011;63021;52.836;6.376;2023-11-19T00:35:52;34.88;;;12.57;;
55455;SDS011;63021;52.836;6.376;2023-11-19T00:38:23;44.65;;;11.45;;
55455;SDS011;63021;52.836;6.376;2023-11-19T00:40:59;49.03;;;12.38;;
55455;SDS011;63021;52.836;6.376;2023-11-19T00:43:37;52.50;;;10.50;;
55455;SDS011;63021;52.836;6.376;2023-11-19T00:46:10;44.78;;;10.15;;
55455;SDS011;63021;52.836;6.376;2023-11-19T00:49:06;44.03;;;9.68;;
55455;SDS011;63021;52.836;6.376;2023-11-19T00:51:55;41.20;;;11.57;;
55455;SDS011;63021;52.836;6.376;2023-11-19T00:54:28;43.50;;;9.38;;
55455;SDS011;63021;52.836;6.376;2023-11-19T00:56:54;49.10;;;7.40;;
55455;SDS011;63021;52.836;6.376;2023-11-19T00:59:20;41.60;;;7.18;;
55455;SDS011;63021;52.836;6.376;2023-11-19T01:01:45;49.30;;;7.60;;
55455;SDS011;63021;52.836;6.376;2023-11-19T01:04:14;50.65;;;6.63;;
55455;SDS011;63021;52.836;6.376;2023-11-19T01:06:40;40.83;;;7.55;;
55455;SDS011;63021;52.836;6.376;2023-11-19T01:09:05;48.22;;;8.35;;
55455;SDS011;63021;52.836;6.376;2023-11-19T01:11:33;47.25;;;7.07;;
55455;SDS011;63021;52.836;6.376;2023-11-19T01:14:04;41.92;;;7.53;;
55455;SDS011;63021;52.836;6.376;2023-11-19T01:16:35;45.90;;;7.35;;
55455;SDS011;63021;52.836;6.376;2023-11-19T01:19:01;51.72;;;6.32;;
55455;SDS011;63021;52.836;6.376;2023-11-19T01:21:30;41.03;;;6.32;;
55455;SDS011;63021;52.836;6.376;2023-11-19T01:23:59;44.00;;;7.15;;
55455;SDS011;63021;52.836;6.376;2023-11-19T01:26:25;48.83;;;7.63;;
55455;SDS011;63021;52.836;6.376;2023-11-19T01:28:50;37.67;;;6.88;;
55455;SDS011;63021;52.836;6.376;2023-11-19T01:31:17;52.92;;;6.95;;
55455;SDS011;63021;52.836;6.376;2023-11-19T01:33:46;42.67;;;6.55;;
55455;SDS011;63021;52.836;6.376;2023-11-19T01:36:18;46.50;;;7.18;;
55455;SDS011;63021;52.836;6.376;2023-11-19T01:38:46;37.95;;;6.60;;
55455;SDS011;63021;52.836;6.376;2023-11-19T01:41:11;42.40;;;6.90;;
55455;SDS011;63021;52.836;6.376;2023-11-19T01:43:38;43.17;;;6.38;;
55455;SDS011;63021;52.836;6.376;2023-11-19T01:46:07;51.05;;;7.32;;
55455;SDS011;63021;52.836;6.376;2023-11-19T01:48:40;36.13;;;5.60;;
55455;SDS011;63021;52.836;6.376;2023-11-19T01:51:10;46.38;;;6.28;;
55455;SDS011;63021;52.836;6.376;2023-11-19T01:53:45;43.53;;;6.32;;
55455;SDS011;63021;52.836;6.376;2023-11-19T01:56:11;51.08;;;7.38;;
55455;SDS011;63021;52.836;6.376;2023-11-19T01:58:45;51.72;;;6.75;;
55455;SDS011;63021;52.836;6.376;2023-11-19T02:01:14;69.57;;;7.60;;
55455;SDS011;63021;52.836;6.376;2023-11-19T02:03:40;43.10;;;7.97;;
55455;SDS011;63021;52.836;6.376;2023-11-19T02:06:06;52.22;;;7.57;;
55455;SDS011;63021;52.836;6.376;2023-11-19T02:08:32;44.38;;;6.05;;
55455;SDS011;63021;52.836;6.376;2023-11-19T02:10:58;48.30;;;7.32;;
55455;SDS011;63021;52.836;6.376;2023-11-19T02:13:26;50.05;;;6.32;;
55455;SDS011;63021;52.836;6.376;2023-11-19T02:15:53;43.05;;;6.63;;
55455;SDS011;63021;52.836;6.376;2023-11-19T02:18:24;49.42;;;6.53;;
55455;SDS011;63021;52.836;6.376;2023-11-19T02:20:52;41.53;;;7.00;;
55455;SDS011;63021;52.836;6.376;2023-11-19T02:23:19;50.47;;;6.90;;
55455;SDS011;63021;52.836;6.376;2023-11-19T02:26:09;52.28;;;7.47;;
55455;SDS011;63021;52.836;6.376;2023-11-19T02:28:31;47.80;;;7.13;;
55455;SDS011;63021;52.836;6.376;2023-11-19T02:31:01;46.05;;;6.68;;
55455;SDS011;63021;52.836;6.376;2023-11-19T02:33:26;63.05;;;9.68;;
55455;SDS011;63021;52.836;6.376;2023-11-19T02:35:52;55.15;;;8.25;;
55455;SDS011;63021;52.836;6.376;2023-11-19T02:38:17;55.08;;;6.07;;
55455;SDS011;63021;52.836;6.376;2023-11-19T02:40:43;72.28;;;7.10;;
55455;SDS011;63021;52.836;6.376;2023-11-19T02:43:08;45.72;;;5.90;;
55455;SDS011;63021;52.836;6.376;2023-11-19T02:45:34;47.83;;;7.28;;
55455;SDS011;63021;52.836;6.376;2023-11-19T02:48:00;39.17;;;8.25;;
55455;SDS011;63021;52.836;6.376;2023-11-19T02:50:26;47.28;;;7.13;;
55455;SDS011;63021;52.836;6.376;2023-11-19T02:52:53;41.67;;;5.93;;
55455;SDS011;63021;52.836;6.376;2023-11-19T02:55:21;54.33;;;6.05;;
55455;SDS011;63021;52.836;6.376;2023-11-19T02:57:49;49.75;;;6.25;;
55455;SDS011;63021;52.836;6.376;2023-11-19T03:00:21;54.60;;;7.15;;
55455;SDS011;63021;52.836;6.376;2023-11-19T03:03:02;54.40;;;7.75;;
55455;SDS011;63021;52.836;6.376;2023-11-19T03:05:45;50.78;;;7.80;;
55455;SDS011;63021;52.836;6.376;2023-11-19T03:08:14;54.25;;;7.90;;
55455;SDS011;63021;52.836;6.376;2023-11-19T03:10:42;43.75;;;6.90;;
55455;SDS011;63021;52.836;6.376;2023-11-19T03:13:13;57.83;;;8.55;;
55455;SDS011;63021;52.836;6.376;2023-11-19T03:15:39;54.50;;;7.45;;
55455;SDS011;63021;52.836;6.376;2023-11-19T03:18:05;46.38;;;6.70;;
55455;SDS011;63021;52.836;6.376;2023-11-19T03:20:31;52.33;;;8.60;;
55455;SDS011;63021;52.836;6.376;2023-11-19T03:22:57;47.28;;;6.57;;
55455;SDS011;63021;52.836;6.376;2023-11-19T03:25:29;48.55;;;6.38;;
55455;SDS011;63021;52.836;6.376;2023-11-19T03:28:02;45.90;;;6.32;;
55455;SDS011;63021;52.836;6.376;2023-11-19T03:30:28;44.45;;;7.40;;
55455;SDS011;63021;52.836;6.376;2023-11-19T03:32:55;53.38;;;7.28;;
55455;SDS011;63021;52.836;6.376;2023-11-19T03:35:22;49.20;;;6.90;;
55455;SDS011;63021;52.836;6.376;2023-11-19T03:37:48;52.58;;;8.15;;
55455;SDS011;63021;52.836;6.376;2023-11-19T03:40:14;50.20;;;9.55;;
55455;SDS011;63021;52.836;6.376;2023-11-19T03:42:40;41.75;;;7.05;;
55455;SDS011;63021;52.836;6.376;2023-11-19T03:45:06;59.60;;;9.48;;
55455;SDS011;63021;52.836;6.376;2023-11-19T03:47:33;60.17;;;8.48;;
55455;SDS011;63021;52.836;6.376;2023-11-19T03:49:59;42.80;;;7.07;;
55455;SDS011;63021;52.836;6.376;2023-11-19T03:52:25;59.17;;;8.75;;
55455;SDS011;63021;52.836;6.376;2023-11-19T03:54:52;51.58;;;7.38;;
55455;SDS011;63021;52.836;6.376;2023-11-19T03:57:20;43.03;;;6.93;;
55455;SDS011;63021;52.836;6.376;2023-11-19T03:59:45;50.20;;;7.88;;
55455;SDS011;63021;52.836;6.376;2023-11-19T04:02:11;45.85;;;7.45;;
55455;SDS011;63021;52.836;6.376;2023-11-19T04:04:46;52.72;;;7.22;;
55455;SDS011;63021;52.836;6.376;2023-11-19T04:07:13;72.30;;;9.23;;
55455;SDS011;63021;52.836;6.376;2023-11-19T04:09:41;67.55;;;9.50;;
55455;SDS011;63021;52.836;6.376;2023-11-19T04:12:07;57.30;;;9.38;;
55455;SDS011;63021;52.836;6.376;2023-11-19T04:14:33;52.92;;;7.30;;
55455;SDS011;63021;52.836;6.376;2023-11-19T04:16:58;64.20;;;9.45;;
55455;SDS011;63021;52.836;6.376;2023-11-19T04:19:24;43.47;;;8.07;;
55455;SDS011;63021;52.836;6.376;2023-11-19T04:21:49;59.38;;;8.15;;
55455;SDS011;63021;52.836;6.376;2023-11-19T04:24:15;53.47;;;8.15;;
55455;SDS011;63021;52.836;6.376;2023-11-19T04:26:41;55.58;;;8.48;;
55455;SDS011;63021;52.836;6.376;2023-11-19T04:29:14;49.55;;;8.50;;
55455;SDS011;63021;52.836;6.376;2023-11-19T04:31:44;60.83;;;11.13;;
55455;SDS011;63021;52.836;6.376;2023-11-19T04:34:10;56.55;;;9.25;;
55455;SDS011;63021;52.836;6.376;2023-11-19T04:36:36;62.13;;;10.05;;
55455;SDS011;63021;52.836;6.376;2023-11-19T04:39:02;49.47;;;9.38;;
55455;SDS011;63021;52.836;6.376;2023-11-19T04:41:37;50.17;;;8.07;;
55455;SDS011;63021;52.836;6.376;2023-11-19T04:44:11;50.97;;;8.73;;
55455;SDS011;63021;52.836;6.376;2023-11-19T04:46:41;48.22;;;8.57;;
55455;SDS011;63021;52.836;6.376;2023-11-19T04:49:08;56.35;;;7.43;;
55455;SDS011;63021;52.836;6.376;2023-11-19T04:51:41;46.28;;;7.88;;
55455;SDS011;63021;52.836;6.376;2023-11-19T04:54:15;43.70;;;7.95;;
55455;SDS011;63021;52.836;6.376;2023-11-19T04:56:44;61.53;;;9.70;;
55455;SDS011;63021;52.836;6.376;2023-11-19T04:59:10;56.15;;;8.30;;
55455;SDS011;63021;52.836;6.376;2023-11-19T05:01:36;55.28;;;9.18;;
55455;SDS011;63021;52.836;6.376;2023-11-19T05:04:01;58.88;;;10.80;;
55455;SDS011;63021;52.836;6.376;2023-11-19T05:06:27;45.42;;;7.80;;
55455;SDS011;63021;52.836;6.376;2023-11-19T05:08:54;49.15;;;7.72;;
55455;SDS011;63021;52.836;6.376;2023-11-19T05:11:20;52.00;;;7.80;;
55455;SDS011;63021;52.836;6.376;2023-11-19T05:13:45;49.75;;;8.63;;
55455;SDS011;63021;52.836;6.376;2023-11-19T05:16:11;58.00;;;8.80;;
55455;SDS011;63021;52.836;6.376;2023-11-19T05:18:39;50.15;;;8.13;;
55455;SDS011;63021;52.836;6.376;2023-11-19T05:21:05;49.70;;;9.43;;
55455;SDS011;63021;52.836;6.376;2023-11-19T05:23:32;59.28;;;8.15;;
55455;SDS011;63021;52.836;6.376;2023-11-19T05:25:59;56.70;;;8.63;;
55455;SDS011;63021;52.836;6.376;2023-11-19T05:28:25;52.75;;;8.38;;
55455;SDS011;63021;52.836;6.376;2023-11-19T05:30:53;57.55;;;9.77;;
55455;SDS011;63021;52.836;6.376;2023-11-19T05:33:25;39.33;;;7.80;;
55455;SDS011;63021;52.836;6.376;2023-11-19T05:35:57;41.40;;;7.53;;
55455;SDS011;63021;52.836;6.376;2023-11-19T05:38:36;55.22;;;10.02;;
55455;SDS011;63021;52.836;6.376;2023-11-19T05:41:10;63.65;;;11.88;;
55455;SDS011;63021;52.836;6.376;2023-11-19T05:43:41;49.42;;;7.35;;
55455;SDS011;63021;52.836;6.376;2023-11-19T05:46:07;49.33;;;6.70;;
55455;SDS011;63021;52.836;6.376;2023-11-19T05:48:35;44.90;;;7.65;;
55455;SDS011;63021;52.836;6.376;2023-11-19T05:51:04;48.60;;;8.25;;
55455;SDS011;63021;52.836;6.376;2023-11-19T05:53:30;49.70;;;8.55;;
55455;SDS011;63021;52.836;6.376;2023-11-19T05:55:56;42.10;;;7.55;;
55455;SDS011;63021;52.836;6.376;2023-11-19T05:58:25;42.55;;;8.23;;
55455;SDS011;63021;52.836;6.376;2023-11-19T06:01:10;56.22;;;8.30;;
55455;SDS011;63021;52.836;6.376;2023-11-19T06:04:04;66.32;;;9.65;;
55455;SDS011;63021;52.836;6.376;2023-11-19T06:06:39;49.38;;;8.73;;
55455;SDS011;63021;52.836;6.376;2023-11-19T06:09:19;49.88;;;9.15;;
55455;SDS011;63021;52.836;6.376;2023-11-19T06:11:55;47.15;;;6.90;;
55455;SDS011;63021;52.836;6.376;2023-11-19T06:14:28;56.47;;;8.10;;
55455;SDS011;63021;52.836;6.376;2023-11-19T06:16:59;39.15;;;7.07;;
55455;SDS011;63021;52.836;6.376;2023-11-19T06:22:24;60.85;;;10.25;;
55455;SDS011;63021;52.836;6.376;2023-11-19T06:24:56;40.67;;;8.10;;
55455;SDS011;63021;52.836;6.376;2023-11-19T06:27:22;41.53;;;8.55;;
55455;SDS011;63021;52.836;6.376;2023-11-19T06:29:48;51.13;;;6.40;;
55455;SDS011;63021;52.836;6.376;2023-11-19T06:32:37;53.67;;;10.88;;
55455;SDS011;63021;52.836;6.376;2023-11-19T06:35:09;51.72;;;7.63;;
55455;SDS011;63021;52.836;6.376;2023-11-19T06:37:41;55.08;;;7.05;;
55455;SDS011;63021;52.836;6.376;2023-11-19T06:43:10;52.25;;;10.20;;
55455;SDS011;63021;52.836;6.376;2023-11-19T06:45:45;41.08;;;7.30;;
55455;SDS011;63021;52.836;6.376;2023-11-19T06:48:14;47.17;;;9.15;;
55455;SDS011;63021;52.836;6.376;2023-11-19T06:50:46;42.05;;;7.75;;
55455;SDS011;63021;52.836;6.376;2023-11-19T06:53:23;48.80;;;7.10;;
55455;SDS011;63021;52.836;6.376;2023-11-19T06:55:59;40.33;;;7.57;;
55455;SDS011;63021;52.836;6.376;2023-11-19T06:58:37;45.08;;;8.93;;
55455;SDS011;63021;52.836;6.376;2023-11-19T07:01:08;59.55;;;8.98;;
55455;SDS011;63021;52.836;6.376;2023-11-19T07:03:48;48.15;;;8.00;;
55455;SDS011;63021;52.836;6.376;2023-11-19T07:06:17;42.35;;;7.25;;
55455;SDS011;63021;52.836;6.376;2023-11-19T07:09:06;50.58;;;8.27;;
55455;SDS011;63021;52.836;6.376;2023-11-19T07:15:04;53.00;;;8.27;;
55455;SDS011;63021;52.836;6.376;2023-11-19T07:17:57;55.83;;;10.43;;
55455;SDS011;63021;52.836;6.376;2023-11-19T07:20:26;44.33;;;8.00;;
55455;SDS011;63021;52.836;6.376;2023-11-19T07:23:04;52.45;;;9.90;;
55455;SDS011;63021;52.836;6.376;2023-11-19T07:25:33;51.60;;;8.32;;
55455;SDS011;63021;52.836;6.376;2023-11-19T07:28:00;44.78;;;8.43;;
55455;SDS011;63021;52.836;6.376;2023-11-19T07:30:31;46.28;;;8.73;;
55455;SDS011;63021;52.836;6.376;2023-11-19T07:33:01;56.25;;;8.98;;
55455;SDS011;63021;52.836;6.376;2023-11-19T07:35:34;49.35;;;9.27;;
55455;SDS011;63021;52.836;6.376;2023-11-19T07:38:07;50.45;;;7.85;;
55455;SDS011;63021;52.836;6.376;2023-11-19T07:40:48;43.80;;;9.07;;
55455;SDS011;63021;52.836;6.376;2023-11-19T07:43:19;38.92;;;7.85;;
55455;SDS011;63021;52.836;6.376;2023-11-19T07:48:24;46.17;;;8.57;;
55455;SDS011;63021;52.836;6.376;2023-11-19T07:50:51;48.28;;;8.00;;
55455;SDS011;63021;52.836;6.376;2023-11-19T07:53:33;42.33;;;7.00;;
55455;SDS011;63021;52.836;6.376;2023-11-19T07:56:06;50.00;;;9.07;;
55455;SDS011;63021;52.836;6.376;2023-11-19T07:58:37;45.55;;;7.75;;
55455;SDS011;63021;52.836;6.376;2023-11-19T08:01:07;47.50;;;9.50;;
55455;SDS011;63021;52.836;6.376;2023-11-19T08:03:36;49.72;;;8.57;;
55455;SDS011;63021;52.836;6.376;2023-11-19T08:06:27;45.92;;;8.98;;
55455;SDS011;63021;52.836;6.376;2023-11-19T08:08:58;56.92;;;8.60;;
55455;SDS011;63021;52.836;6.376;2023-11-19T08:14:27;47.05;;;8.32;;
55455;SDS011;63021;52.836;6.376;2023-11-19T08:17:05;44.58;;;7.20;;
55455;SDS011;63021;52.836;6.376;2023-11-19T08:29:13;50.33;;;8.45;;
55455;SDS011;63021;52.836;6.376;2023-11-19T08:35:04;47.78;;;7.90;;
55455;SDS011;63021;52.836;6.376;2023-11-19T08:37:49;48.47;;;8.23;;
55455;SDS011;63021;52.836;6.376;2023-11-19T08:40:46;42.83;;;7.00;;
55455;SDS011;63021;52.836;6.376;2023-11-19T08:43:30;45.40;;;7.45;;
55455;SDS011;63021;52.836;6.376;2023-11-19T08:46:16;43.90;;;8.45;;
55455;SDS011;63021;52.836;6.376;2023-11-19T08:48:51;41.90;;;6.93;;
55455;SDS011;63021;52.836;6.376;2023-11-19T08:51:25;50.28;;;7.72;;
55455;SDS011;63021;52.836;6.376;2023-11-19T08:53:58;49.92;;;8.18;;
55455;SDS011;63021;52.836;6.376;2023-11-19T08:56:45;42.92;;;7.25;;
55455;SDS011;63021;52.836;6.376;2023-11-19T08:59:38;62.40;;;11.13;;
55455;SDS011;63021;52.836;6.376;2023-11-19T09:02:21;38.67;;;7.57;;
55455;SDS011;63021;52.836;6.376;2023-11-19T09:04:48;40.60;;;7.82;;
55455;SDS011;63021;52.836;6.376;2023-11-19T09:07:23;37.55;;;7.03;;
55455;SDS011;63021;52.836;6.376;2023-11-19T09:13:01;41.20;;;7.38;;
55455;SDS011;63021;52.836;6.376;2023-11-19T09:15:44;42.72;;;6.78;;
55455;SDS011;63021;52.836;6.376;2023-11-19T09:21:15;43.10;;;7.80;;
55455;SDS011;63021;52.836;6.376;2023-11-19T09:27:51;43.00;;;7.57;;
55455;SDS011;63021;52.836;6.376;2023-11-19T09:30:57;54.08;;;6.55;;
55455;SDS011;63021;52.836;6.376;2023-11-19T09:33:58;50.20;;;8.75;;
55455;SDS011;63021;52.836;6.376;2023-11-19T09:39:38;39.58;;;8.55;;
55455;SDS011;63021;52.836;6.376;2023-11-19T09:45:06;34.67;;;5.80;;
55455;SDS011;63021;52.836;6.376;2023-11-19T09:48:05;49.67;;;7.72;;
55455;SDS011;63021;52.836;6.376;2023-11-19T09:51:14;45.38;;;6.70;;
55455;SDS011;63021;52.836;6.376;2023-11-19T09:53:47;38.90;;;5.85;;
55455;SDS011;63021;52.836;6.376;2023-11-19T09:56:57;44.47;;;6.93;;
55455;SDS011;63021;52.836;6.376;2023-11-19T09:59:47;48.20;;;7.68;;
55455;SDS011;63021;52.836;6.376;2023-11-19T10:02:28;39.90;;;7.10;;
55455;SDS011;63021;52.836;6.376;2023-11-19T10:05:14;57.00;;;7.45;;
55455;SDS011;63021;52.836;6.376;2023-11-19T10:07:45;41.50;;;7.18;;
55455;SDS011;63021;52.836;6.376;2023-11-19T10:10:26;47.45;;;7.70;;
55455;SDS011;63021;52.836;6.376;2023-11-19T10:13:19;38.40;;;6.40;;
55455;SDS011;63021;52.836;6.376;2023-11-19T10:19:39;46.30;;;7.18;;
55455;SDS011;63021;52.836;6.376;2023-11-19T10:25:25;40.78;;;6.78;;
55455;SDS011;63021;52.836;6.376;2023-11-19T10:30:59;41.08;;;9.48;;
55455;SDS011;63021;52.836;6.376;2023-11-19T10:33:37;39.30;;;6.47;;
55455;SDS011;63021;52.836;6.376;2023-11-19T10:36:05;49.15;;;8.80;;
55455;SDS011;63021;52.836;6.376;2023-11-19T10:38:55;55.08;;;11.82;;
55455;SDS011;63021;52.836;6.376;2023-11-19T10:41:46;46.50;;;7.05;;
55455;SDS011;63021;52.836;6.376;2023-11-19T10:44:45;46.72;;;7.70;;
55455;SDS011;63021;52.836;6.376;2023-11-19T10:47:20;45.70;;;8.68;;
55455;SDS011;63021;52.836;6.376;2023-11-19T10:50:04;40.80;;;7.63;;
55455;SDS011;63021;52.836;6.376;2023-11-19T10:52:56;37.80;;;7.75;;
55455;SDS011;63021;52.836;6.376;2023-11-19T10:56:08;37.90;;;6.45;;
55455;SDS011;63021;52.836;6.376;2023-11-19T10:58:52;31.63;;;6.13;;
55455;SDS011;63021;52.836;6.376;2023-11-19T11:01:43;41.72;;;6.95;;
55455;SDS011;63021;52.836;6.376;2023-11-19T11:04:39;34.75;;;6.15;;
55455;SDS011;63021;52.836;6.376;2023-11-19T11:07:15;44.85;;;7.70;;
55455;SDS011;63021;52.836;6.376;2023-11-19T11:10:01;39.45;;;6.78;;
55455;SDS011;63021;52.836;6.376;2023-11-19T11:13:00;47.08;;;8.35;;
55455;SDS011;63021;52.836;6.376;2023-11-19T11:15:47;37.03;;;7.30;;
55455;SDS011;63021;52.836;6.376;2023-11-19T11:18:30;39.90;;;8.20;;
55455;SDS011;63021;52.836;6.376;2023-11-19T11:21:09;41.80;;;6.55;;
55455;SDS011;63021;52.836;6.376;2023-11-19T11:27:12;41.47;;;8.43;;
55455;SDS011;63021;52.836;6.376;2023-11-19T11:29:50;49.05;;;8.98;;
55455;SDS011;63021;52.836;6.376;2023-11-19T11:33:06;51.28;;;10.32;;
55455;SDS011;63021;52.836;6.376;2023-11-19T11:38:25;46.28;;;9.68;;
55455;SDS011;63021;52.836;6.376;2023-11-19T11:41:18;40.95;;;7.32;;
55455;SDS011;63021;52.836;6.376;2023-11-19T11:44:05;42.80;;;8.45;;
55455;SDS011;63021;52.836;6.376;2023-11-19T11:55:35;40.08;;;6.47;;
55455;SDS011;63021;52.836;6.376;2023-11-19T11:58:25;41.63;;;7.40;;
55455;SDS011;63021;52.836;6.376;2023-11-19T12:00:58;46.60;;;6.60;;
55455;SDS011;63021;52.836;6.376;2023-11-19T12:03:27;42.17;;;6.72;;
55455;SDS011;63021;52.836;6.376;2023-11-19T12:06:05;43.28;;;6.65;;
55455;SDS011;63021;52.836;6.376;2023-11-19T12:08:33;36.47;;;6.25;;
55455;SDS011;63021;52.836;6.376;2023-11-19T12:11:04;40.58;;;7.50;;
55455;SDS011;63021;52.836;6.376;2023-11-19T12:13:46;49.03;;;8.18;;
55455;SDS011;63021;52.836;6.376;2023-11-19T12:16:21;36.92;;;6.82;;
55455;SDS011;63021;52.836;6.376;2023-11-19T12:18:47;44.28;;;8.07;;
55455;SDS011;63021;52.836;6.376;2023-11-19T12:21:29;32.15;;;5.85;;
55455;SDS011;63021;52.836;6.376;2023-11-19T12:24:00;43.20;;;8.40;;
55455;SDS011;63021;52.836;6.376;2023-11-19T12:26:35;53.60;;;9.93;;
55455;SDS011;63021;52.836;6.376;2023-11-19T12:29:05;33.72;;;7.18;;
55455;SDS011;63021;52.836;6.376;2023-11-19T12:31:31;44.72;;;8.68;;
55455;SDS011;63021;52.836;6.376;2023-11-19T12:34:01;36.20;;;6.15;;
55455;SDS011;63021;52.836;6.376;2023-11-19T12:36:37;35.50;;;6.40;;
55455;SDS011;63021;52.836;6.376;2023-11-19T12:39:08;38.72;;;6.40;;
55455;SDS011;63021;52.836;6.376;2023-11-19T12:41:50;37.70;;;5.30;;
55455;SDS011;63021;52.836;6.376;2023-11-19T12:44:34;40.42;;;6.30;;
55455;SDS011;63021;52.836;6.376;2023-11-19T12:47:03;41.53;;;8.25;;
55455;SDS011;63021;52.836;6.376;2023-11-19T12:49:34;40.65;;;6.45;;
55455;SDS011;63021;52.836;6.376;2023-11-19T12:52:00;35.53;;;6.43;;
55455;SDS011;63021;52.836;6.376;2023-11-19T12:54:46;40.35;;;7.63;;
55455;SDS011;63021;52.836;6.376;2023-11-19T12:57:20;41.00;;;6.82;;
55455;SDS011;63021;52.836;6.376;2023-11-19T12:59:55;43.95;;;7.15;;
55455;SDS011;63021;52.836;6.376;2023-11-19T13:05:27;40.40;;;5.97;;
55455;SDS011;63021;52.836;6.376;2023-11-19T13:08:14;44.42;;;7.20;;
55455;SDS011;63021;52.836;6.376;2023-11-19T13:10:52;44.53;;;6.32;;
55455;SDS011;63021;52.836;6.376;2023-11-19T13:13:32;35.33;;;5.82;;
55455;SDS011;63021;52.836;6.376;2023-11-19T13:16:01;41.20;;;7.90;;
55455;SDS011;63021;52.836;6.376;2023-11-19T13:18:33;45.35;;;7.45;;
55455;SDS011;63021;52.836;6.376;2023-11-19T13:20:58;39.25;;;6.85;;
55455;SDS011;63021;52.836;6.376;2023-11-19T13:23:30;39.35;;;6.57;;
55455;SDS011;63021;52.836;6.376;2023-11-19T13:25:56;30.95;;;5.60;;
55455;SDS011;63021;52.836;6.376;2023-11-19T13:28:25;40.80;;;6.28;;
55455;SDS011;63021;52.836;6.376;2023-11-19T13:31:25;34.67;;;7.57;;
55455;SDS011;63021;52.836;6.376;2023-11-19T13:34:06;31.75;;;5.30;;
55455;SDS011;63021;52.836;6.376;2023-11-19T13:36:40;33.20;;;5.90;;
55455;SDS011;63021;52.836;6.376;2023-11-19T13:39:05;36.00;;;6.40;;
55455;SDS011;63021;52.836;6.376;2023-11-19T13:41:32;41.40;;;6.40;;
55455;SDS011;63021;52.836;6.376;2023-11-19T13:43:58;32.70;;;5.97;;
55455;SDS011;63021;52.836;6.376;2023-11-19T13:46:26;33.47;;;5.68;;
55455;SDS011;63021;52.836;6.376;2023-11-19T13:49:05;25.92;;;5.13;;
55455;SDS011;63021;52.836;6.376;2023-11-19T13:51:31;37.78;;;6.00;;
55455;SDS011;63021;52.836;6.376;2023-11-19T13:53:57;41.97;;;6.03;;
55455;SDS011;63021;52.836;6.376;2023-11-19T13:56:25;38.03;;;7.80;;
55455;SDS011;63021;52.836;6.376;2023-11-19T13:58:51;42.53;;;6.90;;
55455;SDS011;63021;52.836;6.376;2023-11-19T14:01:18;40.25;;;7.07;;
55455;SDS011;63021;52.836;6.376;2023-11-19T14:03:54;27.67;;;6.47;;
55455;SDS011;63021;52.836;6.376;2023-11-19T14:06:22;36.40;;;6.05;;
55455;SDS011;63021;52.836;6.376;2023-11-19T14:08:50;36.78;;;7.25;;
55455;SDS011;63021;52.836;6.376;2023-11-19T14:11:26;37.78;;;6.00;;
55455;SDS011;63021;52.836;6.376;2023-11-19T14:14:11;25.48;;;4.78;;
55455;SDS011;63021;52.836;6.376;2023-11-19T14:16:40;34.85;;;5.80;;
55455;SDS011;63021;52.836;6.376;2023-11-19T14:19:08;41.92;;;6.20;;
55455;SDS011;63021;52.836;6.376;2023-11-19T14:21:36;36.92;;;6.38;;
55455;SDS011;63021;52.836;6.376;2023-11-19T14:24:11;38.63;;;6.78;;
55455;SDS011;63021;52.836;6.376;2023-11-19T14:26:58;51.05;;;7.90;;
55455;SDS011;63021;52.836;6.376;2023-11-19T14:29:24;28.92;;;6.35;;
55455;SDS011;63021;52.836;6.376;2023-11-19T14:32:06;34.47;;;6.90;;
55455;SDS011;63021;52.836;6.376;2023-11-19T14:34:39;41.25;;;8.48;;
55455;SDS011;63021;52.836;6.376;2023-11-19T14:37:08;35.38;;;6.32;;
55455;SDS011;63021;52.836;6.376;2023-11-19T14:39:39;46.75;;;7.10;;
55455;SDS011;63021;52.836;6.376;2023-11-19T14:42:12;42.13;;;7.53;;
55455;SDS011;63021;52.836;6.376;2023-11-19T14:44:40;37.03;;;6.60;;
55455;SDS011;63021;52.836;6.376;2023-11-19T14:47:06;44.60;;;7.90;;
55455;SDS011;63021;52.836;6.376;2023-11-19T14:49:35;45.53;;;6.60;;
55455;SDS011;63021;52.836;6.376;2023-11-19T14:52:02;34.15;;;6.25;;
55455;SDS011;63021;52.836;6.376;2023-11-19T14:54:36;47.88;;;6.80;;
55455;SDS011;63021;52.836;6.376;2023-11-19T14:57:06;32.63;;;5.68;;
55455;SDS011;63021;52.836;6.376;2023-11-19T14:59:35;33.80;;;6.65;;
55455;SDS011;63021;52.836;6.376;2023-11-19T15:02:04;45.85;;;7.50;;
55455;SDS011;63021;52.836;6.376;2023-11-19T15:04:33;42.80;;;8.35;;
55455;SDS011;63021;52.836;6.376;2023-11-19T15:06:59;36.38;;;6.30;;
55455;SDS011;63021;52.836;6.376;2023-11-19T15:09:25;42.47;;;7.85;;
55455;SDS011;63021;52.836;6.376;2023-11-19T15:11:54;38.92;;;6.97;;
55455;SDS011;63021;52.836;6.376;2023-11-19T15:14:20;39.80;;;6.78;;
55455;SDS011;63021;52.836;6.376;2023-11-19T15:16:48;31.52;;;9.32;;
55455;SDS011;63021;52.836;6.376;2023-11-19T15:19:16;41.88;;;8.13;;
55455;SDS011;63021;52.836;6.376;2023-11-19T15:21:41;29.00;;;6.47;;
55455;SDS011;63021;52.836;6.376;2023-11-19T15:24:07;40.00;;;8.32;;
55455;SDS011;63021;52.836;6.376;2023-11-19T15:26:34;34.40;;;7.60;;
55455;SDS011;63021;52.836;6.376;2023-11-19T15:29:00;44.45;;;6.88;;
55455;SDS011;63021;52.836;6.376;2023-11-19T15:31:29;40.67;;;6.18;;
55455;SDS011;63021;52.836;6.376;2023-11-19T15:33:55;40.40;;;6.13;;
55455;SDS011;63021;52.836;6.376;2023-11-19T15:36:21;33.15;;;6.15;;
55455;SDS011;63021;52.836;6.376;2023-11-19T15:38:46;29.98;;;5.88;;
55455;SDS011;63021;52.836;6.376;2023-11-19T15:41:14;39.90;;;7.25;;
55455;SDS011;63021;52.836;6.376;2023-11-19T15:43:45;31.73;;;5.72;;
55455;SDS011;63021;52.836;6.376;2023-11-19T15:46:11;41.25;;;5.10;;
55455;SDS011;63021;52.836;6.376;2023-11-19T15:48:36;33.58;;;6.05;;
55455;SDS011;63021;52.836;6.376;2023-11-19T15:51:05;38.65;;;5.93;;
55455;SDS011;63021;52.836;6.376;2023-11-19T15:53:33;32.65;;;4.70;;
55455;SDS011;63021;52.836;6.376;2023-11-19T15:56:04;29.92;;;5.63;;
55455;SDS011;63021;52.836;6.376;2023-11-19T15:58:30;34.40;;;6.13;;
55455;SDS011;63021;52.836;6.376;2023-11-19T16:01:01;33.72;;;6.65;;
55455;SDS011;63021;52.836;6.376;2023-11-19T16:03:27;41.80;;;6.03;;
55455;SDS011;63021;52.836;6.376;2023-11-19T16:06:07;31.48;;;5.10;;
55455;SDS011;63021;52.836;6.376;2023-11-19T16:08:41;39.05;;;6.93;;
55455;SDS011;63021;52.836;6.376;2023-11-19T16:11:10;31.02;;;5.65;;
55455;SDS011;63021;52.836;6.376;2023-11-19T16:13:40;28.80;;;5.00;;
55455;SDS011;63021;52.836;6.376;2023-11-19T16:16:09;47.08;;;8.45;;
55455;SDS011;63021;52.836;6.376;2023-11-19T16:18:36;40.70;;;5.90;;